createdAt,value
2019-05-01T00:01:18.213Z,4.73
2019-05-01T00:04:07.834Z,5.37
2019-05-01T00:06:42.593Z,4.60
2019-05-01T00:09:15.115Z,4.77
2019-05-01T00:11:46.186Z,5.10
2019-05-01T00:14:16.963Z,4.77
2019-05-01T00:16:48.009Z,4.80
2019-05-01T00:19:18.918Z,4.60
2019-05-01T00:21:49.698Z,4.77
2019-05-01T00:24:20.550Z,5.13
2019-05-01T00:26:51.386Z,4.90
2019-05-01T00:29:22.233Z,4.87
2019-05-01T00:31:53.032Z,5.27
2019-05-01T00:34:23.750Z,5.13
2019-05-01T00:36:54.756Z,5.23
2019-05-01T00:39:25.602Z,5.33
2019-05-01T00:41:56.608Z,5.50
2019-05-01T00:44:27.620Z,4.90
2019-05-01T00:46:58.388Z,5.03
2019-05-01T00:49:29.153Z,5.23
2019-05-01T00:51:59.857Z,5.47
2019-05-01T00:54:32.431Z,5.57
2019-05-01T00:57:11.994Z,5.60
2019-05-01T00:59:49.192Z,5.53
2019-05-01T01:02:32.684Z,5.63
2019-05-01T01:05:03.576Z,5.00
2019-05-01T01:07:34.427Z,5.40
2019-05-01T01:10:07.373Z,6.20
2019-05-01T01:12:38.119Z,5.00
2019-05-01T01:15:08.953Z,4.83
2019-05-01T01:17:39.929Z,5.87
2019-05-01T01:20:10.682Z,5.93
2019-05-01T01:22:41.488Z,5.87
2019-05-01T01:25:12.581Z,5.63
2019-05-01T01:27:43.388Z,6.00
2019-05-01T01:30:14.818Z,5.77
2019-05-01T01:32:45.658Z,5.83
2019-05-01T01:35:16.483Z,6.80
2019-05-01T01:37:47.186Z,6.10
2019-05-01T01:40:19.425Z,6.43
2019-05-01T01:42:52.197Z,7.00
2019-05-01T01:45:33.108Z,7.70
2019-05-01T01:48:22.693Z,7.17
2019-05-01T01:50:53.604Z,7.50
2019-05-01T01:53:25.124Z,6.70
2019-05-01T01:55:56.583Z,6.90
2019-05-01T01:58:27.788Z,6.87
2019-05-01T02:01:17.252Z,7.20
2019-05-01T02:03:52.268Z,7.37
2019-05-01T02:06:23.133Z,7.60
2019-05-01T02:08:56.531Z,6.90
2019-05-01T02:11:27.281Z,6.70
2019-05-01T02:13:59.585Z,8.63
2019-05-01T02:16:30.399Z,8.17
2019-05-01T02:19:02.626Z,8.00
2019-05-01T02:21:33.813Z,14.23
2019-05-01T02:24:04.914Z,10.50
2019-05-01T02:26:40.500Z,6.97
2019-05-01T02:29:20.028Z,6.70
2019-05-01T02:31:52.540Z,7.60
2019-05-01T02:34:25.263Z,7.97
2019-05-01T02:36:58.784Z,7.13
2019-05-01T02:39:32.239Z,7.07
2019-05-01T02:42:04.282Z,6.63
2019-05-01T02:44:45.634Z,7.30
2019-05-01T02:47:23.619Z,7.53
2019-05-01T02:50:01.725Z,7.50
2019-05-01T02:52:36.205Z,7.10
2019-05-01T02:55:16.313Z,7.50
2019-05-01T02:57:48.895Z,7.40
2019-05-01T03:00:19.901Z,7.90
2019-05-01T03:02:51.264Z,7.97
2019-05-01T03:05:22.110Z,6.90
2019-05-01T03:07:52.893Z,7.37
2019-05-01T03:10:23.938Z,6.90
2019-05-01T03:12:55.385Z,6.80
2019-05-01T03:15:28.879Z,6.80
2019-05-01T03:18:10.116Z,7.40
2019-05-01T03:21:18.750Z,7.23
2019-05-01T03:23:53.945Z,7.43
2019-05-01T03:26:25.147Z,7.20
2019-05-01T03:28:56.989Z,6.80
2019-05-01T03:31:27.733Z,8.97
2019-05-01T03:33:58.619Z,8.87
2019-05-01T03:36:29.418Z,7.80
2019-05-01T03:39:00.550Z,7.83
2019-05-01T03:41:31.676Z,7.63
2019-05-01T03:44:02.421Z,9.97
2019-05-01T03:46:33.518Z,8.57
2019-05-01T03:49:05.382Z,7.03
2019-05-01T03:51:36.600Z,7.30
2019-05-01T03:54:07.482Z,7.83
2019-05-01T03:56:38.601Z,7.73
2019-05-01T03:59:09.294Z,7.27
2019-05-01T04:01:47.062Z,6.73
2019-05-01T04:04:21.154Z,7.10
2019-05-01T04:06:52.204Z,7.30
2019-05-01T04:09:23.299Z,7.00
2019-05-01T04:11:54.210Z,7.67
2019-05-01T04:14:25.355Z,6.93
2019-05-01T04:17:03.856Z,6.90
2019-05-01T04:19:34.883Z,7.30
2019-05-01T04:22:11.390Z,7.57
2019-05-01T04:24:43.560Z,6.40
2019-05-01T04:27:20.606Z,6.87
2019-05-01T04:30:11.009Z,6.60
2019-05-01T04:32:51.994Z,6.87
2019-05-01T04:35:26.024Z,6.37
2019-05-01T04:37:58.403Z,6.33
2019-05-01T04:40:29.407Z,6.83
2019-05-01T04:43:00.245Z,6.90
2019-05-01T04:45:31.744Z,6.47
2019-05-01T04:48:03.051Z,7.03
2019-05-01T04:50:34.571Z,6.90
2019-05-01T04:53:05.554Z,6.60
2019-05-01T04:55:36.952Z,6.80
2019-05-01T04:58:07.957Z,7.27
2019-05-01T05:00:39.556Z,7.37
2019-05-01T05:03:15.144Z,7.63
2019-05-01T05:05:47.013Z,7.67
2019-05-01T05:08:18.383Z,8.20
2019-05-01T05:10:51.121Z,7.57
2019-05-01T05:13:41.063Z,7.07
2019-05-01T05:16:30.860Z,7.00
2019-05-01T05:19:01.722Z,6.50
2019-05-01T05:21:32.763Z,6.23
2019-05-01T05:24:03.803Z,5.77
2019-05-01T05:26:35.561Z,5.60
2019-05-01T05:29:06.883Z,6.00
2019-05-01T05:31:38.873Z,6.37
2019-05-01T05:34:11.543Z,6.73
2019-05-01T05:36:44.205Z,6.17
2019-05-01T05:39:22.809Z,6.20
2019-05-01T05:41:55.434Z,5.67
2019-05-01T05:44:26.971Z,5.90
2019-05-01T05:46:58.167Z,5.73
2019-05-01T05:49:29.010Z,5.93
2019-05-01T05:52:21.872Z,6.40
2019-05-01T05:55:14.454Z,6.10
2019-05-01T05:58:06.219Z,5.57
2019-05-01T06:00:56.782Z,6.17
2019-05-01T06:03:48.923Z,5.80
2019-05-01T06:06:36.803Z,5.23
2019-05-01T06:09:13.762Z,5.17
2019-05-01T06:12:04.857Z,5.30
2019-05-01T06:14:47.432Z,5.87
2019-05-01T06:17:28.638Z,5.83
2019-05-01T06:20:20.764Z,5.67
2019-05-01T06:23:15.709Z,5.83
2019-05-01T06:25:48.522Z,5.50
2019-05-01T06:28:24.956Z,5.70
2019-05-01T06:30:54.462Z,5.50
2019-05-01T06:33:25.338Z,6.17
2019-05-01T06:35:58.006Z,6.37
2019-05-01T06:38:31.545Z,5.67
2019-05-01T06:41:02.283Z,6.80
2019-05-01T06:43:52.197Z,6.10
2019-05-01T06:46:30.258Z,5.57
2019-05-01T06:49:18.876Z,5.30
2019-05-01T06:51:53.608Z,4.70
2019-05-01T06:54:28.048Z,4.97
2019-05-01T06:57:00.274Z,4.83
2019-05-01T06:59:33.428Z,5.13
2019-05-01T07:02:04.983Z,4.83
2019-05-01T07:04:37.945Z,8.30
2019-05-01T07:07:24.102Z,5.53
2019-05-01T07:09:44.064Z,5.10
2019-05-01T07:12:23.987Z,4.40
2019-05-01T07:14:54.067Z,4.53
2019-05-01T07:17:25.112Z,4.43
2019-05-01T07:20:16.939Z,4.40
2019-05-01T07:22:48.317Z,4.80
2019-05-01T07:25:19.458Z,4.50
2019-05-01T07:27:53.901Z,4.10
2019-05-01T07:30:41.871Z,4.50
2019-05-01T07:33:16.766Z,4.53
2019-05-01T07:35:46.771Z,4.50
2019-05-01T07:38:18.290Z,4.03
2019-05-01T07:40:49.377Z,4.10
2019-05-01T07:43:39.864Z,4.30
2019-05-01T07:46:29.625Z,4.00
2019-05-01T07:49:01.293Z,3.67
2019-05-01T07:51:32.141Z,4.90
2019-05-01T07:54:06.673Z,4.63
2019-05-01T07:56:36.412Z,4.47
2019-05-01T07:59:07.705Z,4.27
2019-05-01T08:01:58.742Z,4.13
2019-05-01T08:04:37.003Z,3.77
2019-05-01T08:07:03.976Z,3.50
2019-05-01T08:09:35.832Z,3.80
2019-05-01T08:12:07.892Z,3.83
2019-05-01T08:14:39.173Z,3.80
2019-05-01T08:17:12.922Z,6.23
2019-05-01T08:19:49.606Z,3.83
2019-05-01T08:22:23.006Z,4.50
2019-05-01T08:24:58.842Z,4.47
2019-05-01T08:27:44.133Z,4.20
2019-05-01T08:33:44.778Z,3.70
2019-05-01T08:36:13.578Z,3.70
2019-05-01T08:38:44.312Z,2.83
2019-05-01T08:41:15.118Z,2.70
2019-05-01T08:43:48.924Z,3.10
2019-05-01T08:46:38.398Z,3.40
2019-05-01T08:49:18.126Z,3.10
2019-05-01T08:51:49.956Z,3.17
2019-05-01T08:54:20.744Z,2.90
2019-05-01T08:56:53.143Z,3.20
2019-05-01T08:59:25.776Z,2.90
2019-05-01T09:02:08.854Z,2.33
2019-05-01T09:04:30.309Z,2.20
2019-05-01T09:07:01.952Z,2.30
2019-05-01T09:09:33.457Z,2.23
2019-05-01T09:12:06.850Z,2.50
2019-05-01T09:14:36.941Z,2.50
2019-05-01T09:17:07.684Z,2.40
2019-05-01T09:19:38.430Z,2.43
2019-05-01T09:22:09.272Z,2.93
2019-05-01T09:24:40.723Z,2.60
2019-05-01T09:27:31.159Z,3.02
2019-05-01T09:30:08.607Z,2.93
2019-05-01T09:32:39.642Z,3.00
2019-05-01T09:35:15.867Z,3.00
2019-05-01T09:37:43.071Z,3.10
2019-05-01T09:40:14.113Z,3.17
2019-05-01T09:42:45.019Z,2.70
2019-05-01T09:45:17.987Z,2.20
2019-05-01T09:47:49.151Z,2.30
2019-05-01T09:50:20.138Z,2.40
2019-05-01T09:52:59.843Z,2.80
2019-05-01T09:55:49.332Z,3.10
2019-05-01T09:58:20.157Z,3.67
2019-05-01T10:00:53.865Z,4.23
2019-05-01T10:03:24.887Z,4.37
2019-05-01T10:05:55.772Z,3.50
2019-05-01T10:08:26.618Z,3.60
2019-05-01T10:10:59.858Z,3.67
2019-05-01T10:13:29.743Z,4.33
2019-05-01T10:16:00.765Z,4.67
2019-05-01T10:18:31.453Z,4.63
2019-05-01T10:21:02.115Z,4.50
2019-05-01T10:23:32.825Z,4.47
2019-05-01T10:26:05.800Z,4.40
2019-05-01T10:28:52.442Z,5.13
2019-05-01T10:31:27.597Z,4.67
2019-05-01T10:34:07.662Z,5.17
2019-05-01T10:36:49.930Z,5.40
2019-05-01T10:39:20.808Z,5.00
2019-05-01T10:41:51.494Z,6.10
2019-05-01T10:44:22.233Z,5.80
2019-05-01T10:46:53.003Z,6.50
2019-05-01T10:49:23.655Z,5.83
2019-05-01T10:51:54.314Z,5.73
2019-05-01T10:54:27.599Z,6.50
2019-05-01T10:56:58.827Z,6.10
2019-05-01T10:59:30.894Z,5.40
2019-05-01T11:02:02.927Z,6.13
2019-05-01T11:04:33.718Z,6.33
2019-05-01T11:07:04.393Z,6.93
2019-05-01T11:09:35.142Z,7.10
2019-05-01T11:12:05.983Z,7.27
2019-05-01T11:14:36.879Z,6.27
2019-05-01T11:17:08.099Z,7.40
2019-05-01T11:19:38.987Z,7.33
2019-05-01T11:22:09.683Z,7.80
2019-05-01T11:24:40.258Z,8.47
2019-05-01T11:27:11.124Z,7.30
2019-05-01T11:29:41.850Z,7.50
2019-05-01T11:32:32.061Z,7.93
2019-05-01T11:35:21.588Z,8.27
2019-05-01T11:38:11.069Z,8.60
2019-05-01T11:40:47.397Z,8.40
2019-05-01T11:43:18.053Z,8.73
2019-05-01T11:45:48.795Z,8.93
2019-05-01T11:48:19.514Z,10.33
2019-05-01T11:50:50.563Z,9.30
2019-05-01T11:53:21.274Z,9.57
2019-05-01T11:55:52.235Z,9.37
2019-05-01T11:58:23.103Z,8.90
2019-05-01T12:00:55.428Z,10.30
2019-05-01T12:03:26.084Z,9.87
2019-05-01T12:05:56.935Z,9.83
2019-05-01T12:08:27.663Z,11.37
2019-05-01T12:10:59.124Z,10.90
2019-05-01T12:13:42.739Z,12.27
2019-05-01T12:16:09.337Z,11.60
2019-05-01T12:18:40.278Z,10.70
2019-05-01T12:21:11.107Z,10.63
2019-05-01T12:23:42.227Z,12.00
2019-05-01T12:26:13.095Z,13.23
2019-05-01T12:28:43.893Z,13.03
2019-05-01T12:31:14.795Z,13.40
2019-05-01T12:33:45.881Z,14.27
2019-05-01T12:36:16.775Z,14.80
2019-05-01T12:38:47.764Z,14.57
2019-05-01T12:41:24.773Z,12.57
2019-05-01T12:43:55.669Z,14.83
2019-05-01T12:46:45.469Z,14.20
2019-05-01T12:49:16.255Z,14.23
2019-05-01T12:52:10.552Z,12.67
2019-05-01T12:54:51.824Z,13.73
2019-05-01T12:57:21.403Z,14.37
2019-05-01T12:59:52.320Z,14.77
2019-05-01T13:02:23.029Z,15.90
2019-05-01T13:04:53.715Z,16.50
2019-05-01T13:07:25.145Z,17.33
2019-05-01T13:09:56.073Z,18.17
2019-05-01T13:12:26.792Z,18.53
2019-05-01T13:14:57.528Z,18.10
2019-05-01T13:17:28.423Z,19.80
2019-05-01T13:19:58.969Z,18.73
2019-05-01T13:22:29.703Z,17.73
2019-05-01T13:25:00.419Z,18.17
2019-05-01T13:27:41.528Z,16.70
2019-05-01T13:30:26.216Z,18.50
2019-05-01T13:32:56.987Z,17.77
2019-05-01T13:35:30.479Z,17.50
2019-05-01T13:38:00.215Z,17.97
2019-05-01T13:40:31.009Z,17.07
2019-05-01T13:43:01.746Z,18.00
2019-05-01T13:45:32.413Z,19.70
2019-05-01T13:48:03.360Z,18.17
2019-05-01T13:50:34.459Z,18.50
2019-05-01T13:53:05.283Z,17.77
2019-05-01T13:55:36.038Z,18.67
2019-05-01T13:58:06.583Z,19.30
2019-05-01T14:00:37.583Z,18.10
2019-05-01T14:03:08.273Z,18.80
2019-05-01T14:08:21.608Z,19.70
2019-05-01T14:10:52.168Z,20.50
2019-05-01T14:13:22.799Z,21.03
2019-05-01T14:15:53.607Z,21.23
2019-05-01T14:18:24.264Z,23.07
2019-05-01T14:21:13.984Z,23.47
2019-05-01T14:24:03.644Z,22.53
2019-05-01T14:26:44.602Z,22.40
2019-05-01T14:29:15.432Z,21.27
2019-05-01T14:31:45.979Z,22.00
2019-05-01T14:34:16.807Z,21.73
2019-05-01T14:36:47.463Z,21.77
2019-05-01T14:39:18.209Z,22.33
2019-05-01T14:41:48.859Z,21.87
2019-05-01T14:44:19.713Z,21.47
2019-05-01T14:46:50.471Z,20.57
2019-05-01T14:49:21.198Z,20.13
2019-05-01T14:51:51.780Z,20.40
2019-05-01T14:54:22.614Z,19.43
2019-05-01T14:56:53.237Z,18.37
2019-05-01T14:59:23.858Z,17.70
2019-05-01T15:01:54.539Z,16.50
2019-05-01T15:04:25.218Z,14.50
2019-05-01T15:06:56.183Z,18.60
2019-05-01T15:09:26.687Z,17.70
2019-05-01T15:11:57.363Z,17.57
2019-05-01T15:14:46.927Z,17.57
2019-05-01T15:17:30.409Z,15.50
2019-05-01T15:22:43.916Z,15.27
2019-05-01T15:25:14.467Z,16.27
2019-05-01T15:27:45.127Z,17.57
2019-05-01T15:30:19.573Z,17.63
2019-05-01T15:32:50.198Z,18.23
2019-05-01T15:35:20.879Z,17.27
2019-05-01T15:40:39.887Z,18.80
2019-05-01T15:43:29.498Z,16.87
2019-05-01T15:46:00.282Z,18.63
2019-05-01T15:48:30.872Z,16.63
2019-05-01T15:51:01.546Z,17.10
2019-05-01T15:53:32.301Z,18.57
2019-05-01T15:56:02.978Z,16.00
2019-05-01T15:58:33.709Z,16.10
2019-05-01T16:01:04.423Z,17.77
2019-05-01T16:03:35.194Z,22.00
2019-05-01T16:06:08.338Z,21.33
2019-05-01T16:08:38.708Z,22.80
2019-05-01T16:11:28.263Z,23.97
2019-05-01T16:13:59.079Z,23.43
2019-05-01T16:16:29.873Z,24.07
2019-05-01T16:19:00.485Z,24.20
2019-05-01T16:21:30.986Z,21.63
2019-05-01T16:24:02.011Z,22.00
2019-05-01T16:26:32.732Z,21.43
2019-05-01T16:29:03.633Z,21.90
2019-05-01T16:31:34.628Z,21.27
2019-05-01T16:34:05.823Z,20.27
2019-05-01T16:36:36.715Z,19.53
2019-05-01T16:39:27.592Z,19.63
2019-05-01T16:41:58.525Z,18.83
2019-05-01T16:44:29.366Z,18.40
2019-05-01T16:47:00.403Z,20.33
2019-05-01T16:49:31.214Z,20.50
2019-05-01T16:52:01.846Z,21.40
2019-05-01T16:54:32.719Z,19.47
2019-05-01T16:57:03.454Z,19.13
2019-05-01T16:59:34.378Z,20.33
2019-05-01T17:02:24.190Z,17.73
2019-05-01T17:05:01.426Z,17.17
2019-05-01T17:07:37.576Z,17.70
2019-05-01T17:10:12.918Z,18.53
2019-05-01T17:12:52.033Z,17.67
2019-05-01T17:15:42.003Z,17.50
2019-05-01T17:18:14.407Z,16.87
2019-05-01T17:20:45.382Z,16.43
2019-05-01T17:23:16.289Z,17.20
2019-05-01T17:25:47.259Z,17.30
2019-05-01T17:28:18.117Z,17.87
2019-05-01T17:30:57.699Z,17.13
2019-05-01T17:33:29.176Z,17.33
2019-05-01T17:36:00.213Z,17.77
2019-05-01T17:38:31.097Z,17.67
2019-05-01T17:41:03.572Z,17.70
2019-05-01T17:43:37.062Z,17.27
2019-05-01T17:46:10.658Z,18.17
2019-05-01T17:48:43.698Z,18.63
2019-05-01T17:51:16.164Z,18.53
2019-05-01T17:53:47.943Z,19.13
2019-05-01T17:56:27.536Z,20.60
2019-05-01T17:58:52.783Z,18.70
2019-05-01T18:02:05.343Z,19.33
2019-05-01T18:04:50.641Z,19.20
2019-05-01T18:07:21.842Z,20.10
2019-05-01T18:09:55.682Z,20.10
2019-05-01T18:12:37.628Z,19.20
2019-05-01T18:15:10.856Z,19.70
2019-05-01T18:17:43.533Z,19.70
2019-05-01T18:20:16.285Z,19.57
2019-05-01T18:23:08.396Z,21.23
2019-05-01T18:25:51.046Z,20.53
2019-05-01T18:28:40.777Z,21.07
2019-05-01T18:31:16.997Z,21.97
2019-05-01T18:33:56.886Z,19.40
2019-05-01T18:36:35.268Z,28.77
2019-05-01T18:39:22.029Z,19.50
2019-05-01T18:41:53.814Z,23.43
2019-05-01T18:44:27.993Z,18.73
2019-05-01T18:47:00.044Z,18.37
2019-05-01T18:49:33.996Z,18.43
2019-05-01T18:52:11.761Z,19.97
2019-05-01T18:54:56.918Z,18.43
2019-05-01T18:57:27.735Z,19.43
2019-05-01T19:00:06.811Z,19.33
2019-05-01T19:02:42.884Z,19.43
2019-05-01T19:05:22.732Z,21.23
2019-05-01T19:07:59.009Z,19.63
2019-05-01T19:10:42.754Z,19.77
2019-05-01T19:13:14.427Z,21.83
2019-05-01T19:15:52.411Z,26.03
2019-05-01T19:18:27.043Z,26.77
2019-05-01T19:21:00.493Z,22.57
2019-05-01T19:23:37.028Z,23.47
2019-05-01T19:26:16.803Z,23.77
2019-05-01T19:28:51.112Z,22.90
2019-05-01T19:31:23.935Z,22.27
2019-05-01T19:34:02.228Z,23.77
2019-05-01T19:36:45.121Z,23.13
2019-05-01T19:39:15.036Z,25.47
2019-05-01T19:41:49.054Z,25.07
2019-05-01T19:44:33.155Z,26.83
2019-05-01T19:47:13.653Z,25.00
2019-05-01T19:49:54.430Z,26.03
2019-05-01T19:52:37.486Z,26.20
2019-05-01T19:55:20.523Z,26.57
2019-05-01T19:57:51.473Z,27.60
2019-05-01T20:00:57.333Z,26.37
2019-05-01T20:03:39.685Z,27.23
2019-05-01T20:06:12.073Z,26.33
2019-05-01T20:08:53.837Z,27.10
2019-05-01T20:11:36.269Z,28.27
2019-05-01T20:14:16.677Z,27.50
2019-05-01T20:16:57.141Z,26.60
2019-05-01T20:19:32.205Z,27.67
2019-05-01T20:22:34.604Z,26.77
2019-05-01T20:25:09.618Z,26.40
2019-05-01T20:27:48.334Z,26.33
2019-05-01T20:30:23.818Z,37.17
2019-05-01T20:33:10.233Z,25.63
2019-05-01T20:35:53.767Z,26.70
2019-05-01T20:38:34.384Z,28.27
2019-05-01T20:41:10.385Z,28.40
2019-05-01T20:43:45.893Z,25.57
2019-05-01T20:46:13.809Z,27.73
2019-05-01T20:48:45.436Z,26.10
2019-05-01T20:51:16.316Z,24.90
2019-05-01T20:53:53.853Z,25.37
2019-05-01T20:56:41.438Z,25.50
2019-05-01T20:59:17.686Z,25.70
2019-05-01T21:01:48.796Z,25.27
2019-05-01T21:04:34.588Z,24.53
2019-05-01T21:07:19.925Z,26.63
2019-05-01T21:09:57.236Z,32.93
2019-05-01T21:12:22.332Z,25.47
2019-05-01T21:14:56.921Z,24.63
2019-05-01T21:17:27.871Z,24.00
2019-05-01T21:19:58.865Z,24.63
2019-05-01T21:22:29.861Z,25.40
2019-05-01T21:25:00.820Z,24.97
2019-05-01T21:27:33.484Z,26.10
2019-05-01T21:30:05.129Z,25.13
2019-05-01T21:32:36.463Z,24.83
2019-05-01T21:35:07.498Z,25.70
2019-05-01T21:37:38.526Z,25.03
2019-05-01T21:40:12.738Z,25.93
2019-05-01T21:42:47.258Z,25.80
2019-05-01T21:45:16.088Z,26.53
2019-05-01T21:47:47.933Z,29.23
2019-05-01T21:50:22.797Z,28.23
2019-05-01T21:52:53.637Z,27.33
2019-05-01T21:55:25.817Z,26.87
2019-05-01T21:57:56.454Z,27.93
2019-05-01T22:00:48.534Z,25.77
2019-05-01T22:03:21.564Z,25.13
2019-05-01T22:05:52.404Z,26.97
2019-05-01T22:08:23.783Z,25.17
2019-05-01T22:10:57.545Z,25.70
2019-05-01T22:13:27.288Z,25.37
2019-05-01T22:16:04.119Z,23.43
2019-05-01T22:18:47.544Z,22.90
2019-05-01T22:21:27.671Z,22.93
2019-05-01T22:24:19.177Z,21.67
2019-05-01T22:27:05.600Z,22.37
2019-05-01T22:29:48.996Z,21.43
2019-05-01T22:32:27.755Z,22.90
2019-05-01T22:35:03.461Z,22.33
2019-05-01T22:37:38.106Z,22.30
2019-05-01T22:40:12.651Z,22.23
2019-05-01T22:42:44.585Z,22.20
2019-05-01T22:45:23.322Z,22.87
2019-05-01T22:47:54.218Z,22.60
2019-05-01T22:50:25.337Z,22.50
2019-05-01T22:52:56.283Z,23.03
2019-05-01T22:55:27.309Z,23.10
2019-05-01T22:57:58.233Z,22.13
2019-05-01T23:00:49.041Z,24.97
2019-05-01T23:03:24.847Z,25.43
2019-05-01T23:05:56.074Z,28.17
2019-05-01T23:08:27.033Z,27.10
2019-05-01T23:10:57.947Z,26.17
2019-05-01T23:13:28.818Z,27.60
2019-05-01T23:15:59.933Z,27.10
2019-05-01T23:18:30.772Z,26.47
2019-05-01T23:21:01.758Z,27.03
2019-05-01T23:23:32.666Z,30.83
2019-05-01T23:26:03.335Z,29.37
2019-05-01T23:28:34.892Z,29.33
2019-05-01T23:31:06.988Z,28.80
2019-05-01T23:33:37.768Z,30.73
2019-05-01T23:36:08.736Z,30.13
2019-05-01T23:38:39.563Z,32.00
2019-05-01T23:41:10.363Z,31.37
2019-05-01T23:43:41.073Z,29.27
2019-05-01T23:46:11.953Z,27.27
2019-05-01T23:48:42.746Z,26.70
2019-05-01T23:51:13.513Z,26.00
2019-05-01T23:53:48.255Z,25.93
2019-05-01T23:56:17.014Z,25.53
2019-05-01T23:58:47.822Z,24.37
